Memorable Weather Events

Foggy morning season starting yet? (End of January 2013)

MGGT 301420Z 00000KT 3000 BR SCT010
MGGT 301400Z 00000KT 1500 BR SCT010 15/15 Q1025 A3027 APCH CLSD
MGGT 301300Z 00000KT 0000 FG VV/// 15/15 Q1025 A3027 APCH CLSD
MGGT 301200Z 00000KT 0000 FG VV/// 15/15 Q1024 A3024 APCH CLSD
MGGT 301100Z 00000KT 1000 BR OVC002 15/15 Q1023 A3021 APCH CLSD
MGGT 301035Z 00000KT 2000 BR OVC002
MGGT 301000Z 00000KT 3000 BR SCT004 BKN014 16/15 Q1024 A3024

Windy November (End of October 2012)

November is a windy month. Even if the wind report doesn’t look to bad. Watch out as wind conditions can change quickly. Wind report has doubled from one METAR report to the next.

MGGT 281400Z 36016 KT 9999 FEW020 BKN200 17/12 Q1025 A3027 FEW080M
MGGT 281300Z 36008KT CAVOK 15/12 Q1025 A3027 SCT080 BKN200

Windy days in March 2012

MGGT 050100Z 36026KT 9999 BKN018 19/13 Q1023 A3021 VA SOBRE EL VOLCAN DE FUEGO
MGGT 050000Z 36022KT 9999 SCT018 21/12 Q1022 A3018
MGGT 042300Z 36015G26KT 9999 FEW020 23/13 Q1023 A3021
MGGT 042200Z 36015G28KT 9999 FEW020 24/10 Q1022 A3018
MGGT 042100Z 36014G28KT 9999 SCT020 24/12 Q1023 A3021
MGGT 042000Z 36015G30KT 9999 SCT020 24/12 Q1024 A3024

Reduced Visibility at night and morning April / May 2012

MGGT 020525Z 00000KT 3000 BR BKN015

Flash Fog! Look at how quickly visibility is changing end of May 2012

MGGT 311400Z 18004KT 8000 FEW016 19/16 Q1022 A3018 HZ
MGGT 311307Z 00000KT 4000 BR FEW005 17/16 Q1023 A3021
MGGT 311300Z 00000KT 4000 FEW005 17/16 Q1023 A3021
MGGT 311200Z 00000KT 1000S 6000N BR FEW002 15/15 Q1022 A3018
MGGT 311143Z 00000KT 1500 BR FEW002
MGGT 311130Z 00000KT 0100 FG FEW002 BEST APCH N
MGGT 311123Z 00000KT 0500S FG FEW002
MGGT 311115Z 00000KT 2000S BR FEW003 VTO TEND S
MGGT 311100Z 00000KT 9000 SKC 16/15 Q1022 A3018 VIS BR

1 Response to Memorable Weather Events

  1. Pingback: Added minor information to weather pages | Guatemala Skies

Leave a Reply

Your email address will not be published. Required fields are marked *

Time limit is exhausted. Please reload CAPTCHA.